createdAt,value
2018-04-11T00:00:23.806Z,66.72
2018-04-11T00:01:23.733Z,65.42
2018-04-11T00:03:15.478Z,69.43
2018-04-11T00:04:15.415Z,70.67
2018-04-11T00:06:07.203Z,67.62
2018-04-11T00:07:07.123Z,69.34
2018-04-11T00:08:58.887Z,69.62
2018-04-11T00:09:58.824Z,71.53
2018-04-11T00:11:50.597Z,70.48
2018-04-11T00:12:50.522Z,72.30
2018-04-11T00:14:42.285Z,69.82
2018-04-11T00:15:42.219Z,70.10
2018-04-11T00:17:34.003Z,68.96
2018-04-11T00:18:33.939Z,70.36
2018-04-11T00:20:25.712Z,64.05
2018-04-11T00:21:25.653Z,64.91
2018-04-11T00:23:17.418Z,58.61
2018-04-11T00:24:17.346Z,60.24
2018-04-11T00:26:09.093Z,66.92
2018-04-11T00:27:09.035Z,65.67
2018-04-11T00:29:00.807Z,66.35
2018-04-11T00:30:00.729Z,66.06
2018-04-11T00:31:52.520Z,65.48
2018-04-11T00:32:52.428Z,65.48
2018-04-11T00:34:44.200Z,67.77
2018-04-11T00:35:44.145Z,64.53
2018-04-11T00:37:35.923Z,65.96
2018-04-11T00:38:35.822Z,67.68
2018-04-11T00:40:27.573Z,62.24
2018-04-11T00:41:27.513Z,62.24
2018-04-11T00:43:19.285Z,63.10
2018-04-11T00:44:19.203Z,62.15
2018-04-11T00:46:10.952Z,63.57
2018-04-11T00:47:10.892Z,62.49
2018-04-11T00:49:02.662Z,60.11
2018-04-11T00:50:02.587Z,59.73
2018-04-11T00:51:54.348Z,57.82
2018-04-11T00:52:54.287Z,58.20
2018-04-11T00:54:46.053Z,59.85
2018-04-11T00:55:45.975Z,63.20
2018-04-11T00:57:37.724Z,62.81
2018-04-11T00:58:37.659Z,63.67
2018-04-11T01:00:29.456Z,62.71
2018-04-11T01:01:29.380Z,63.20
2018-04-11T01:03:21.178Z,64.25
2018-04-11T01:04:21.105Z,64.91
2018-04-11T01:06:12.869Z,63.20
2018-04-11T01:07:12.817Z,63.10
2018-04-11T01:09:04.602Z,65.30
2018-04-11T01:10:04.509Z,65.48
2018-04-11T01:11:56.276Z,63.76
2018-04-11T01:12:56.237Z,63.76
2018-04-11T01:14:47.980Z,62.62
2018-04-11T01:15:47.918Z,62.71
2018-04-11T01:17:39.651Z,61.29
2018-04-11T01:18:39.594Z,63.29
2018-04-11T01:20:31.380Z,61.57
2018-04-11T01:21:31.300Z,63.86
2018-04-11T01:23:23.061Z,59.47
2018-04-11T01:24:22.987Z,59.76
2018-04-11T01:26:14.770Z,57.85
2018-04-11T01:27:14.686Z,60.21
2018-04-11T01:29:06.470Z,58.01
2018-04-11T01:30:06.408Z,56.87
2018-04-11T01:31:58.176Z,54.86
2018-04-11T01:32:58.097Z,55.62
2018-04-11T01:34:49.872Z,51.04
2018-04-11T01:35:49.813Z,53.14
2018-04-11T01:37:41.572Z,49.62
2018-04-11T01:38:41.498Z,51.04
2018-04-11T01:40:33.259Z,50.18
2018-04-11T01:41:33.186Z,52.86
2018-04-11T01:43:24.931Z,50.76
2018-04-11T01:44:24.870Z,52.09
2018-04-11T01:46:16.646Z,50.38
2018-04-11T01:47:16.569Z,48.08
2018-04-11T01:49:08.326Z,48.85
2018-04-11T01:50:08.270Z,46.47
2018-04-11T01:52:00.041Z,44.56
2018-04-11T01:52:59.968Z,45.13
2018-04-11T01:54:51.722Z,43.98
2018-04-11T01:55:51.655Z,46.47
2018-04-11T01:57:43.407Z,45.42
2018-04-11T01:58:43.338Z,43.49
2018-04-11T02:00:35.101Z,43.32
2018-04-11T02:01:35.029Z,42.84
2018-04-11T02:03:26.803Z,44.65
2018-04-11T02:04:26.726Z,41.12
2018-04-11T02:06:18.477Z,42.17
2018-04-11T02:07:18.423Z,42.27
2018-04-11T02:09:10.178Z,43.79
2018-04-11T02:10:10.107Z,43.13
2018-04-11T02:12:01.856Z,43.51
2018-04-11T02:13:01.793Z,44.08
2018-04-11T02:14:53.563Z,43.77
2018-04-11T02:15:53.477Z,41.00
2018-04-11T02:17:45.264Z,39.76
2018-04-11T02:18:45.163Z,38.34
2018-04-11T02:20:36.932Z,38.15
2018-04-11T02:21:36.864Z,38.34
2018-04-11T02:23:28.660Z,38.34
2018-04-11T02:24:28.564Z,37.86
2018-04-11T02:26:20.324Z,37.86
2018-04-11T02:27:20.264Z,39.29
2018-04-11T02:29:12.021Z,39.86
2018-04-11T02:30:11.947Z,41.96
2018-04-11T02:32:03.775Z,41.29
2018-04-11T02:33:03.646Z,41.10
2018-04-11T02:34:55.396Z,42.05
2018-04-11T02:35:55.331Z,41.58
2018-04-11T02:37:47.086Z,42.91
2018-04-11T02:38:47.016Z,40.53
2018-04-11T02:40:38.778Z,42.82
2018-04-11T02:41:38.703Z,41.77
2018-04-11T02:43:30.455Z,40.72
2018-04-11T02:44:30.395Z,40.44
2018-04-11T02:46:22.159Z,45.29
2018-04-11T02:47:22.085Z,44.73
2018-04-11T02:49:13.842Z,41.67
2018-04-11T02:50:13.769Z,44.63
2018-04-11T02:52:05.510Z,39.76
2018-04-11T02:53:05.451Z,39.76
2018-04-11T02:54:57.221Z,40.91
2018-04-11T02:55:57.145Z,43.96
2018-04-11T02:57:48.914Z,41.29
2018-04-11T02:58:48.845Z,44.73
2018-04-11T03:00:40.633Z,43.96
2018-04-11T03:01:40.544Z,45.49
2018-04-11T03:03:32.301Z,43.01
2018-04-11T03:04:32.249Z,41.58
2018-04-11T03:06:24.000Z,43.20
2018-04-11T03:07:23.924Z,41.29
2018-04-11T03:09:15.674Z,42.82
2018-04-11T03:10:15.611Z,42.63
2018-04-11T03:12:07.377Z,41.29
2018-04-11T03:13:07.297Z,43.01
2018-04-11T03:14:59.050Z,43.87
2018-04-11T03:15:58.992Z,42.91
2018-04-11T03:17:50.771Z,45.58
2018-04-11T03:18:50.692Z,47.02
2018-04-11T03:20:42.444Z,47.58
2018-04-11T03:21:42.386Z,45.78
2018-04-11T03:23:34.179Z,43.49
2018-04-11T03:24:34.099Z,43.01
2018-04-11T03:26:25.941Z,44.53
2018-04-11T03:27:25.786Z,46.25
2018-04-11T03:29:17.566Z,47.02
2018-04-11T03:30:17.489Z,45.10
2018-04-11T03:32:09.236Z,46.82
2018-04-11T03:33:09.176Z,46.82
2018-04-11T03:35:01.074Z,50.16
2018-04-11T03:36:00.980Z,46.82
2018-04-11T03:37:52.807Z,45.29
2018-04-11T03:38:52.699Z,47.20
2018-04-11T03:40:44.464Z,48.44
2018-04-11T03:41:44.391Z,49.87
2018-04-11T03:43:36.175Z,44.63
2018-04-11T03:44:36.083Z,42.91
2018-04-11T03:46:27.862Z,44.63
2018-04-11T03:47:27.799Z,46.73
2018-04-11T03:49:19.557Z,46.06
2018-04-11T03:50:19.482Z,45.87
2018-04-11T03:52:11.240Z,46.25
2018-04-11T03:53:11.177Z,46.06
2018-04-11T03:55:02.963Z,46.44
2018-04-11T03:56:02.885Z,47.97
2018-04-11T03:57:54.643Z,44.63
2018-04-11T03:58:54.582Z,45.78
2018-04-11T04:00:46.348Z,46.73
2018-04-11T04:01:46.282Z,48.07
2018-04-11T04:03:38.053Z,49.87
2018-04-11T04:04:37.985Z,49.40
2018-04-11T04:06:29.750Z,47.78
2018-04-11T04:07:29.674Z,46.15
2018-04-11T04:09:21.432Z,47.58
2018-04-11T04:10:21.371Z,49.59
2018-04-11T04:12:13.730Z,49.87
2018-04-11T04:13:13.081Z,50.26
2018-04-11T04:15:04.830Z,49.59
2018-04-11T04:16:04.759Z,48.73
2018-04-11T04:17:56.527Z,48.54
2018-04-11T04:18:56.457Z,48.83
2018-04-11T04:20:48.226Z,47.68
2018-04-11T04:21:48.157Z,48.83
2018-04-11T04:23:39.917Z,47.68
2018-04-11T04:24:39.852Z,49.78
2018-04-11T04:26:31.617Z,48.07
2018-04-11T04:27:31.538Z,51.78
2018-04-11T04:29:23.290Z,49.21
2018-04-11T04:30:23.256Z,47.30
2018-04-11T04:32:15.004Z,48.54
2018-04-11T04:33:14.930Z,48.92
2018-04-11T04:35:06.684Z,47.39
2018-04-11T04:36:06.613Z,49.11
2018-04-11T04:37:58.406Z,49.40
2018-04-11T04:38:58.318Z,50.45
2018-04-11T04:40:50.072Z,51.40
2018-04-11T04:41:50.007Z,48.54
2018-04-11T04:43:41.770Z,49.59
2018-04-11T04:44:41.698Z,48.83
2018-04-11T04:46:33.449Z,47.97
2018-04-11T04:47:33.388Z,50.16
2018-04-11T04:49:25.171Z,49.68
2018-04-11T04:50:25.094Z,48.54
2018-04-11T04:52:16.843Z,48.07
2018-04-11T04:53:16.805Z,49.49
2018-04-11T04:55:08.553Z,46.92
2018-04-11T04:56:08.475Z,47.39
2018-04-11T04:58:00.305Z,47.20
2018-04-11T04:59:00.164Z,47.97
2018-04-11T05:00:51.929Z,45.20
2018-04-11T05:01:51.867Z,45.20
2018-04-11T05:03:43.667Z,47.20
2018-04-11T05:04:43.618Z,47.97
2018-04-11T05:06:35.394Z,44.63
2018-04-11T05:07:35.286Z,46.54
2018-04-11T05:09:27.094Z,47.11
2018-04-11T05:10:27.018Z,45.58
2018-04-11T05:12:18.782Z,49.59
2018-04-11T05:13:18.720Z,47.20
2018-04-11T05:15:10.517Z,48.35
2018-04-11T05:16:10.433Z,46.73
2018-04-11T05:18:02.226Z,50.35
2018-04-11T05:19:02.148Z,48.83
2018-04-11T05:20:53.932Z,50.35
2018-04-11T05:21:53.834Z,49.87
2018-04-11T05:23:45.662Z,50.07
2018-04-11T05:24:45.574Z,49.11
2018-04-11T05:26:37.402Z,46.63
2018-04-11T05:27:37.285Z,49.49
2018-04-11T05:29:29.066Z,49.97
2018-04-11T05:30:28.956Z,50.83
2018-04-11T05:32:20.798Z,50.16
2018-04-11T05:33:20.718Z,51.97
2018-04-11T05:35:12.491Z,51.59
2018-04-11T05:36:12.417Z,50.07
2018-04-11T05:38:04.197Z,49.97
2018-04-11T05:39:04.179Z,46.82
2018-04-11T05:40:55.879Z,50.09
2018-04-11T05:41:55.834Z,52.86
2018-04-11T05:43:47.767Z,51.52
2018-04-11T05:44:47.554Z,49.52
2018-04-11T05:46:39.420Z,54.19
2018-04-11T05:47:39.327Z,51.52
2018-04-11T05:49:31.096Z,51.04
2018-04-11T05:50:31.041Z,51.33
2018-04-11T05:52:22.840Z,54.48
2018-04-11T05:53:22.780Z,54.19
2018-04-11T05:55:14.559Z,52.38
2018-04-11T05:56:14.442Z,51.81
2018-04-11T05:58:06.252Z,53.33
2018-04-11T05:59:06.173Z,52.00
2018-04-11T06:00:57.959Z,44.74
2018-04-11T06:01:57.828Z,49.02
2018-04-11T06:03:49.685Z,33.00
2018-04-11T06:04:49.590Z,35.76
2018-04-11T06:06:41.442Z,38.43
2018-04-11T06:07:41.345Z,31.47
2018-04-11T06:09:33.204Z,28.61
2018-04-11T06:10:33.059Z,33.18
2018-04-11T06:12:24.864Z,35.38
2018-04-11T06:13:24.810Z,30.04
2018-04-11T06:15:16.636Z,33.66
2018-04-11T06:16:16.536Z,35.19
2018-04-11T06:18:08.365Z,39.48
2018-04-11T06:19:08.248Z,38.15
2018-04-11T06:21:00.041Z,39.48
2018-04-11T06:21:59.982Z,34.61
2018-04-11T06:23:51.767Z,43.51
2018-04-11T06:24:51.710Z,44.84
2018-04-11T06:26:43.460Z,43.22
2018-04-11T06:27:43.517Z,46.18
2018-04-11T06:29:35.270Z,46.18
2018-04-11T06:30:35.137Z,44.56
2018-04-11T06:32:26.898Z,47.13
2018-04-11T06:33:26.813Z,53.43
2018-04-11T06:35:18.601Z,53.93
2018-04-11T06:36:18.551Z,55.27
2018-04-11T06:38:10.320Z,51.54
2018-04-11T06:39:10.216Z,53.53
2018-04-11T06:41:02.029Z,50.28
2018-04-11T06:42:01.980Z,51.81
2018-04-11T06:43:53.733Z,52.79
2018-04-11T06:44:53.657Z,54.60
2018-04-11T06:46:45.434Z,62.71
2018-04-11T06:47:45.364Z,60.27
2018-04-11T06:49:37.183Z,67.27
2018-04-11T06:50:37.085Z,74.05
2018-04-11T06:52:28.960Z,79.25
2018-04-11T06:53:28.890Z,76.96
2018-04-11T06:55:20.669Z,76.77
2018-04-11T06:56:20.593Z,84.41
2018-04-11T06:58:12.383Z,96.94
2018-04-11T06:59:12.319Z,99.99
2018-04-11T07:01:04.099Z,99.99
2018-04-11T07:02:04.107Z,99.99
2018-04-11T07:03:55.814Z,99.99
2018-04-11T07:04:55.745Z,99.99
2018-04-11T07:06:47.553Z,99.99
2018-04-11T07:07:47.490Z,99.99
2018-04-11T07:09:39.237Z,99.99
2018-04-11T07:10:39.255Z,99.99
2018-04-11T07:12:30.955Z,99.99
2018-04-11T07:13:30.875Z,99.99
2018-04-11T07:15:22.687Z,99.99
2018-04-11T07:16:22.613Z,99.99
2018-04-11T07:18:14.474Z,99.99
2018-04-11T07:19:14.322Z,99.99
2018-04-11T07:21:06.178Z,99.99
2018-04-11T07:22:06.089Z,99.99
2018-04-11T07:23:57.889Z,99.99
2018-04-11T07:24:57.822Z,99.99
2018-04-11T07:26:49.652Z,99.99
2018-04-11T07:27:49.543Z,99.99
2018-04-11T07:29:41.343Z,99.88
2018-04-11T07:30:41.282Z,99.99
2018-04-11T07:32:33.110Z,99.99
2018-04-11T07:33:33.055Z,99.99
2018-04-11T07:35:24.810Z,99.99
2018-04-11T07:36:24.775Z,99.99
2018-04-11T07:38:16.545Z,99.99
2018-04-11T07:39:16.478Z,99.99
2018-04-11T07:41:08.279Z,99.99
2018-04-11T07:42:08.224Z,99.99
2018-04-11T07:44:00.044Z,99.99
2018-04-11T07:44:59.986Z,99.99
2018-04-11T07:46:51.750Z,99.99
2018-04-11T07:47:51.714Z,99.99
2018-04-11T07:49:43.491Z,99.99
2018-04-11T07:50:43.422Z,99.99
2018-04-11T07:52:35.240Z,99.99
2018-04-11T07:53:35.155Z,99.84
2018-04-11T07:55:26.918Z,99.99
2018-04-11T07:56:26.923Z,99.99
2018-04-11T07:58:18.718Z,99.99
2018-04-11T07:59:18.620Z,99.99
2018-04-11T08:01:10.453Z,99.99
2018-04-11T08:02:10.390Z,99.99
2018-04-11T08:04:02.348Z,99.99
2018-04-11T08:05:02.243Z,99.99
2018-04-11T08:06:54.063Z,99.99
2018-04-11T08:07:53.988Z,99.99
2018-04-11T08:09:45.820Z,99.99
2018-04-11T08:10:45.742Z,99.99
2018-04-11T08:12:37.513Z,99.99
2018-04-11T08:13:37.458Z,99.99
2018-04-11T08:15:29.293Z,99.99
2018-04-11T08:16:29.189Z,99.99
2018-04-11T08:18:20.966Z,98.92
2018-04-11T08:19:20.945Z,96.61
2018-04-11T08:21:12.797Z,98.05
2018-04-11T08:22:12.691Z,95.98
2018-04-11T08:24:04.566Z,95.69
2018-04-11T08:25:04.413Z,93.52
2018-04-11T08:26:56.248Z,93.62
2018-04-11T08:27:56.201Z,91.83
2018-04-11T08:29:48.013Z,93.91
2018-04-11T08:30:47.986Z,91.20
2018-04-11T08:32:39.729Z,84.64
2018-04-11T08:33:39.628Z,85.64
2018-04-11T08:35:31.473Z,88.02
2018-04-11T08:36:31.367Z,88.55
2018-04-11T08:38:23.179Z,91.16
2018-04-11T08:39:23.170Z,94.68
2018-04-11T08:41:15.071Z,95.16
2018-04-11T08:42:14.895Z,91.49
2018-04-11T08:44:06.675Z,81.98
2018-04-11T08:45:06.611Z,82.32
2018-04-11T08:46:58.411Z,88.21
2018-04-11T08:47:58.373Z,84.25
2018-04-11T08:49:50.187Z,82.42
2018-04-11T08:50:50.110Z,89.28
2018-04-11T08:52:41.912Z,89.67
2018-04-11T08:53:41.854Z,93.96
2018-04-11T08:55:33.640Z,92.41
2018-04-11T08:56:33.651Z,86.76
2018-04-11T08:58:25.402Z,84.68
2018-04-11T08:59:25.315Z,81.30
2018-04-11T09:01:17.102Z,87.78
2018-04-11T09:02:17.056Z,87.73
2018-04-11T09:04:08.890Z,79.56
2018-04-11T09:05:08.867Z,82.65
2018-04-11T09:07:00.834Z,83.19
2018-04-11T09:08:00.823Z,91.60
2018-04-11T09:09:52.615Z,90.23
2018-04-11T09:10:52.552Z,88.69
2018-04-11T09:12:44.412Z,85.94
2018-04-11T09:13:44.312Z,88.21
2018-04-11T09:15:36.132Z,95.74
2018-04-11T09:16:36.032Z,95.11
2018-04-11T09:18:27.938Z,99.21
2018-04-11T09:19:27.871Z,99.40
2018-04-11T09:21:19.657Z,99.54
2018-04-11T09:22:19.608Z,98.63
2018-04-11T09:24:11.415Z,96.41
2018-04-11T09:25:11.349Z,93.32
2018-04-11T09:27:03.123Z,87.29
2018-04-11T09:28:03.078Z,80.53
2018-04-11T09:29:54.881Z,87.44
2018-04-11T09:30:54.819Z,88.64
2018-04-11T09:32:46.662Z,84.10
2018-04-11T09:33:46.604Z,81.44
2018-04-11T09:35:38.484Z,74.32
2018-04-11T09:36:38.408Z,76.97
2018-04-11T09:38:30.201Z,76.67
2018-04-11T09:39:30.141Z,85.27
2018-04-11T09:41:21.923Z,94.82
2018-04-11T09:42:21.878Z,95.50
2018-04-11T09:44:13.689Z,94.73
2018-04-11T09:45:13.607Z,92.46
2018-04-11T09:47:05.501Z,90.77
2018-04-11T09:48:05.453Z,91.78
2018-04-11T09:49:57.251Z,96.32
2018-04-11T09:50:57.185Z,94.73
2018-04-11T09:52:48.973Z,90.14
2018-04-11T09:53:48.922Z,93.33
2018-04-11T09:55:40.780Z,97.72
2018-04-11T09:56:40.719Z,95.93
2018-04-11T09:58:32.509Z,94.24
2018-04-11T09:59:32.459Z,94.10
2018-04-11T10:01:24.257Z,94.92
2018-04-11T10:02:24.194Z,92.46
2018-04-11T10:04:15.981Z,94.63
2018-04-11T10:05:15.927Z,92.84
2018-04-11T10:07:07.722Z,89.56
2018-04-11T10:08:07.660Z,87.29
2018-04-11T10:09:59.448Z,91.60
2018-04-11T10:10:59.397Z,95.59
2018-04-11T10:12:51.188Z,95.89
2018-04-11T10:13:51.132Z,96.56
2018-04-11T10:15:42.935Z,98.68
2018-04-11T10:16:42.857Z,98.34
2018-04-11T10:18:34.644Z,95.16
2018-04-11T10:19:34.594Z,92.69
2018-04-11T10:21:26.427Z,87.58
2018-04-11T10:22:26.349Z,89.12
2018-04-11T10:24:18.137Z,91.49
2018-04-11T10:25:18.086Z,92.55
2018-04-11T10:27:09.887Z,92.75
2018-04-11T10:28:09.826Z,97.57
2018-04-11T10:30:01.607Z,99.93
2018-04-11T10:31:01.558Z,99.99
2018-04-11T10:32:53.352Z,99.99
2018-04-11T10:33:53.293Z,99.99
2018-04-11T10:35:45.090Z,99.99
2018-04-11T10:36:45.044Z,99.50
2018-04-11T10:38:36.828Z,99.99
2018-04-11T10:39:36.768Z,98.54
2018-04-11T10:41:28.551Z,97.42
2018-04-11T10:42:28.497Z,95.35
2018-04-11T10:44:20.280Z,96.12
2018-04-11T10:45:20.218Z,94.00
2018-04-11T10:47:12.043Z,97.33
2018-04-11T10:48:11.949Z,98.00
2018-04-11T10:50:03.730Z,98.68
2018-04-11T10:51:03.688Z,95.74
2018-04-11T10:52:55.477Z,93.57
2018-04-11T10:53:55.412Z,95.01
2018-04-11T10:55:47.263Z,96.75
2018-04-11T10:56:47.216Z,95.21
2018-04-11T10:58:38.990Z,94.73
2018-04-11T10:59:38.930Z,96.31
2018-04-11T11:01:30.731Z,97.38
2018-04-11T11:02:30.682Z,98.39
2018-04-11T11:04:22.475Z,99.69
2018-04-11T11:05:22.413Z,99.99
2018-04-11T11:07:14.190Z,99.99
2018-04-11T11:08:14.128Z,99.99
2018-04-11T11:10:05.926Z,99.99
2018-04-11T11:11:05.860Z,99.99
2018-04-11T11:12:57.643Z,99.99
2018-04-11T11:13:57.589Z,99.99
2018-04-11T11:15:49.386Z,99.99
2018-04-11T11:16:49.320Z,99.99
2018-04-11T11:18:41.095Z,99.99
2018-04-11T11:19:41.047Z,99.99
2018-04-11T11:21:33.006Z,99.99
2018-04-11T11:22:32.938Z,99.99
2018-04-11T11:24:24.762Z,99.99
2018-04-11T11:25:24.691Z,99.99
2018-04-11T11:27:16.483Z,99.99
2018-04-11T11:28:16.423Z,99.99
2018-04-11T11:30:08.241Z,99.99
2018-04-11T11:31:08.135Z,99.99
2018-04-11T11:32:59.914Z,99.99
2018-04-11T11:33:59.858Z,99.99
2018-04-11T11:35:51.635Z,99.99
2018-04-11T11:36:51.565Z,99.99
2018-04-11T11:38:43.366Z,99.99
2018-04-11T11:39:43.277Z,99.99
2018-04-11T11:41:35.068Z,99.99
2018-04-11T11:42:34.990Z,99.99
2018-04-11T11:44:26.807Z,99.99
2018-04-11T11:45:26.746Z,99.99
2018-04-11T11:47:18.530Z,99.99
2018-04-11T11:48:18.457Z,99.99
2018-04-11T11:50:10.222Z,99.99
2018-04-11T11:51:10.169Z,99.99
2018-04-11T11:53:01.947Z,99.99
2018-04-11T11:54:01.873Z,99.99
2018-04-11T11:55:53.683Z,99.99
2018-04-11T11:56:53.590Z,99.99
2018-04-11T11:58:45.368Z,99.99
2018-04-11T11:59:45.300Z,99.99
2018-04-11T12:01:37.073Z,99.99
2018-04-11T12:02:37.012Z,99.99
2018-04-11T12:04:28.797Z,99.99
2018-04-11T12:05:28.752Z,99.99
2018-04-11T12:07:20.559Z,99.99
2018-04-11T12:08:20.477Z,99.99
2018-04-11T12:10:12.274Z,99.99
2018-04-11T12:11:12.213Z,99.99
2018-04-11T12:13:03.998Z,99.99
2018-04-11T12:14:03.937Z,99.99
2018-04-11T12:15:55.711Z,99.99
2018-04-11T12:16:55.652Z,99.99
2018-04-11T12:18:47.448Z,99.99
2018-04-11T12:19:47.369Z,99.99
2018-04-11T12:21:39.212Z,99.99
2018-04-11T12:22:39.087Z,99.99
2018-04-11T12:24:31.000Z,99.99
2018-04-11T12:25:30.932Z,99.99
2018-04-11T12:27:22.727Z,99.99
2018-04-11T12:28:22.676Z,99.99
2018-04-11T12:30:14.474Z,99.99
2018-04-11T12:31:14.404Z,99.99
2018-04-11T12:33:06.197Z,99.99
2018-04-11T12:34:06.126Z,99.99
2018-04-11T12:35:57.879Z,99.99
2018-04-11T12:36:57.820Z,99.99
2018-04-11T12:38:49.619Z,99.99
2018-04-11T12:39:49.518Z,99.99
2018-04-11T12:41:41.303Z,99.99
2018-04-11T12:42:41.262Z,99.99
2018-04-11T12:44:33.056Z,99.99
2018-04-11T12:45:32.969Z,99.99
2018-04-11T12:47:24.768Z,99.99
2018-04-11T12:48:24.706Z,99.99
2018-04-11T12:50:16.525Z,99.99
2018-04-11T12:51:16.481Z,99.99
2018-04-11T12:53:08.267Z,99.99
2018-04-11T12:54:08.200Z,99.99
2018-04-11T12:56:00.014Z,99.99
2018-04-11T12:56:59.906Z,99.99
2018-04-11T12:58:51.737Z,99.99
2018-04-11T12:59:51.697Z,99.99
2018-04-11T13:01:43.514Z,99.99
2018-04-11T13:02:43.344Z,99.99
2018-04-11T13:04:35.164Z,99.99
2018-04-11T13:05:35.101Z,99.99
2018-04-11T13:07:26.913Z,99.99
2018-04-11T13:08:26.819Z,99.99
2018-04-11T13:10:18.606Z,99.99
2018-04-11T13:11:18.532Z,99.99
2018-04-11T13:13:10.304Z,99.99
2018-04-11T13:14:10.243Z,99.99
2018-04-11T13:16:02.122Z,99.99
2018-04-11T13:17:01.962Z,99.99
2018-04-11T13:18:53.826Z,99.99
2018-04-11T13:19:53.689Z,99.99
2018-04-11T13:21:45.534Z,99.99
2018-04-11T13:22:45.402Z,99.99
2018-04-11T13:24:37.165Z,99.99
2018-04-11T13:25:37.112Z,99.99
2018-04-11T13:27:28.904Z,99.99
2018-04-11T13:28:28.828Z,99.99
2018-04-11T13:30:20.668Z,99.99
2018-04-11T13:31:20.604Z,99.99
2018-04-11T13:33:12.437Z,99.99
2018-04-11T13:34:12.362Z,99.99
2018-04-11T13:36:04.105Z,99.99
2018-04-11T13:37:04.053Z,99.99
2018-04-11T13:38:55.843Z,99.99
2018-04-11T13:39:55.765Z,99.99
2018-04-11T13:41:47.537Z,99.99
2018-04-11T13:42:47.478Z,99.99
2018-04-11T13:44:39.257Z,99.99
2018-04-11T13:45:39.177Z,99.99
2018-04-11T13:47:30.975Z,99.99
2018-04-11T13:48:30.917Z,99.99
2018-04-11T13:50:22.672Z,99.99
2018-04-11T13:51:22.610Z,99.99
2018-04-11T13:53:14.410Z,99.99
2018-04-11T13:54:14.345Z,99.99
2018-04-11T13:56:06.105Z,99.99
2018-04-11T13:57:06.061Z,99.99
2018-04-11T13:58:57.834Z,99.99
2018-04-11T13:59:57.795Z,99.99
2018-04-11T14:01:49.575Z,99.99
2018-04-11T14:02:49.455Z,99.99
2018-04-11T14:04:41.294Z,99.99
2018-04-11T14:05:41.215Z,99.99
2018-04-11T14:07:32.984Z,99.99
2018-04-11T14:08:32.938Z,99.99
2018-04-11T14:10:24.700Z,99.99
2018-04-11T14:11:24.658Z,99.99
2018-04-11T14:13:16.507Z,99.99
2018-04-11T14:14:16.392Z,99.99
2018-04-11T14:16:08.157Z,99.99
2018-04-11T14:17:08.090Z,99.99
2018-04-11T14:18:59.955Z,99.99
2018-04-11T14:19:59.866Z,99.99
2018-04-11T14:21:51.735Z,99.99
2018-04-11T14:22:51.584Z,99.99
2018-04-11T14:24:43.361Z,99.99
2018-04-11T14:25:43.295Z,99.99
2018-04-11T14:27:35.048Z,99.99
2018-04-11T14:28:34.980Z,99.99
2018-04-11T14:30:26.820Z,99.99
2018-04-11T14:31:26.740Z,99.99
2018-04-11T14:33:18.576Z,99.99
2018-04-11T14:34:18.527Z,99.99
2018-04-11T14:36:10.315Z,99.99
2018-04-11T14:37:10.235Z,99.99
2018-04-11T14:39:02.032Z,99.99
2018-04-11T14:40:02.000Z,99.99
2018-04-11T14:41:53.734Z,99.99
2018-04-11T14:42:53.658Z,99.99
2018-04-11T14:44:45.488Z,99.99
2018-04-11T14:45:45.424Z,99.99
2018-04-11T14:47:37.226Z,99.99
2018-04-11T14:48:37.131Z,99.99
2018-04-11T14:50:28.893Z,99.99
2018-04-11T14:51:28.836Z,99.99
2018-04-11T14:53:20.655Z,99.99
2018-04-11T14:54:20.566Z,99.99
2018-04-11T14:56:12.359Z,99.99
2018-04-11T14:57:12.386Z,99.99
2018-04-11T14:59:04.136Z,99.99
2018-04-11T15:00:04.115Z,99.99
2018-04-11T15:01:55.903Z,99.99
2018-04-11T15:02:55.779Z,99.99
2018-04-11T15:04:47.559Z,99.99
2018-04-11T15:05:47.513Z,99.99
2018-04-11T15:07:39.253Z,99.99
2018-04-11T15:08:39.185Z,99.99
2018-04-11T15:10:31.012Z,99.99
2018-04-11T15:11:30.904Z,99.99
2018-04-11T15:13:22.692Z,99.99
2018-04-11T15:14:22.610Z,99.99
2018-04-11T15:16:14.410Z,99.99
2018-04-11T15:17:14.338Z,99.99
2018-04-11T15:19:06.124Z,99.99
2018-04-11T15:20:06.057Z,99.99
2018-04-11T15:21:57.817Z,99.99
2018-04-11T15:22:57.756Z,99.99
2018-04-11T15:24:49.555Z,99.99
2018-04-11T15:25:49.464Z,99.99
2018-04-11T15:27:41.244Z,99.99
2018-04-11T15:28:41.173Z,99.99
2018-04-11T15:30:32.966Z,99.99
2018-04-11T15:31:32.899Z,99.99
2018-04-11T15:33:24.694Z,99.99
2018-04-11T15:34:24.638Z,99.99
2018-04-11T15:36:16.390Z,99.99
2018-04-11T15:37:16.351Z,99.99
2018-04-11T15:39:08.107Z,99.99
2018-04-11T15:40:08.061Z,99.99
2018-04-11T15:41:59.853Z,99.99
2018-04-11T15:42:59.770Z,99.99
2018-04-11T15:44:51.541Z,99.99
2018-04-11T15:45:51.481Z,99.99
2018-04-11T15:47:43.278Z,99.99
2018-04-11T15:48:43.190Z,99.99
2018-04-11T15:50:35.019Z,99.99
2018-04-11T15:51:34.935Z,99.99
2018-04-11T15:53:26.693Z,99.99
2018-04-11T15:54:26.638Z,99.99
2018-04-11T15:56:18.450Z,99.99
2018-04-11T15:57:18.360Z,99.99
2018-04-11T15:59:10.146Z,99.99
2018-04-11T16:00:10.043Z,99.99
2018-04-11T16:02:01.852Z,99.99
2018-04-11T16:03:01.776Z,99.99
2018-04-11T16:04:53.538Z,99.99
2018-04-11T16:05:53.493Z,99.99
2018-04-11T16:07:45.402Z,99.99
2018-04-11T16:08:45.393Z,99.99
2018-04-11T16:10:37.091Z,99.99
2018-04-11T16:11:36.986Z,99.99
2018-04-11T16:13:28.796Z,99.99
2018-04-11T16:14:28.715Z,99.99
2018-04-11T16:16:21.094Z,99.99
2018-04-11T16:17:20.706Z,99.99
2018-04-11T16:19:12.290Z,99.39
2018-04-11T16:20:12.163Z,98.62
2018-04-11T16:22:03.973Z,99.99
2018-04-11T16:23:03.881Z,99.01
2018-04-11T16:24:55.693Z,99.99
2018-04-11T16:25:55.648Z,99.39
2018-04-11T16:27:47.393Z,99.20
2018-04-11T16:28:47.310Z,99.49
2018-04-11T16:30:39.090Z,98.62
2018-04-11T16:31:39.015Z,98.57
2018-04-11T16:33:30.791Z,97.56
2018-04-11T16:34:30.737Z,97.95
2018-04-11T16:36:22.509Z,98.33
2018-04-11T16:37:22.477Z,98.57
2018-04-11T16:39:14.258Z,96.75
2018-04-11T16:40:14.324Z,96.94
2018-04-11T16:42:06.037Z,96.66
2018-04-11T16:43:05.911Z,95.41
2018-04-11T16:44:57.708Z,95.56
2018-04-11T16:45:57.655Z,95.36
2018-04-11T16:47:49.515Z,94.59
2018-04-11T16:48:49.434Z,94.89
2018-04-11T16:50:41.237Z,94.98
2018-04-11T16:51:41.145Z,95.07
2018-04-11T16:53:33.056Z,95.94
2018-04-11T16:54:32.869Z,94.40
2018-04-11T16:56:24.642Z,95.26
2018-04-11T16:57:24.631Z,94.40
2018-04-11T16:59:16.382Z,94.79
2018-04-11T17:00:16.305Z,93.63
2018-04-11T17:02:08.084Z,94.31
2018-04-11T17:03:08.022Z,94.31
2018-04-11T17:04:59.832Z,94.64
2018-04-11T17:05:59.808Z,93.30
2018-04-11T17:07:51.505Z,93.59
2018-04-11T17:08:51.442Z,94.07
2018-04-11T17:10:43.248Z,93.78
2018-04-11T17:11:43.168Z,93.30
2018-04-11T17:13:34.983Z,92.73
2018-04-11T17:14:34.890Z,93.98
2018-04-11T17:16:26.676Z,93.59
2018-04-11T17:17:26.590Z,93.11
2018-04-11T17:19:18.377Z,91.86
2018-04-11T17:20:18.283Z,91.39
2018-04-11T17:22:10.080Z,91.39
2018-04-11T17:23:10.004Z,92.54
2018-04-11T17:25:01.789Z,90.81
2018-04-11T17:26:01.707Z,92.73
2018-04-11T17:27:53.490Z,91.86
2018-04-11T17:28:53.434Z,91.39
2018-04-11T17:30:45.351Z,90.48
2018-04-11T17:31:45.128Z,90.48
2018-04-11T17:33:36.974Z,88.09
2018-04-11T17:34:36.857Z,89.04
2018-04-11T17:36:28.693Z,88.95
2018-04-11T17:37:28.610Z,88.56
2018-04-11T17:39:20.380Z,89.33
2018-04-11T17:40:20.326Z,87.99
2018-04-11T17:42:12.075Z,88.18
2018-04-11T17:43:12.013Z,87.99
2018-04-11T17:45:03.846Z,85.41
2018-04-11T17:46:03.711Z,85.50
2018-04-11T17:47:55.492Z,85.60
2018-04-11T17:48:55.422Z,84.64
2018-04-11T17:50:47.196Z,84.92
2018-04-11T17:51:47.117Z,84.45
2018-04-11T17:53:38.922Z,84.06
2018-04-11T17:54:38.859Z,84.41
2018-04-11T17:56:30.663Z,84.50
2018-04-11T17:57:30.622Z,82.49
2018-04-11T17:59:22.338Z,82.01
2018-04-11T18:00:22.290Z,83.26
2018-04-11T18:02:14.088Z,82.97
2018-04-11T18:03:14.030Z,80.58
2018-04-11T18:05:05.799Z,82.20
2018-04-11T18:06:05.745Z,81.63
2018-04-11T18:07:57.542Z,80.67
2018-04-11T18:08:57.449Z,81.63
2018-04-11T18:10:49.227Z,80.19
2018-04-11T18:11:49.158Z,80.38
2018-04-11T18:13:40.993Z,78.57
2018-04-11T18:14:40.902Z,79.58
2018-04-11T18:16:32.728Z,78.05
2018-04-11T18:17:32.634Z,78.14
2018-04-11T18:19:24.481Z,75.66
2018-04-11T18:20:24.335Z,76.62
2018-04-11T18:22:16.800Z,75.47
2018-04-11T18:23:16.139Z,77.00
2018-04-11T18:25:07.875Z,76.14